Time;durP1;ratioP1;P1;durP2;ratioP2;P2;SDS_P1;SDS_P2;PMS_P1;PMS_P2;Temp;Humidity;BMP_temperature;BMP_pressure;BME280_temperature;BME280_humidity;BME280_pressure;Samples;Min_cycle;Max_cycle;Signal;HPM_P1;HPM_P2
2023/03/18 00:02:17;;;;;;;;;16.75;15.25;;;;;14.80;66.93;100169.84;5074682;28;45451;-75
2023/03/18 00:04:43;;;;;;;;;19.00;18.25;;;;;14.72;67.05;100162.69;5074801;28;45657;-74
2023/03/18 00:07:09;;;;;;;;;18.50;18.00;;;;;14.68;67.01;100169.22;5072966;28;47186;-72
2023/03/18 00:09:35;;;;;;;;;18.25;16.50;;;;;14.61;66.92;100155.78;5073356;28;47056;-76
2023/03/18 00:12:01;;;;;;;;;20.00;18.75;;;;;14.63;66.86;100167.00;5073640;28;45734;-76
2023/03/18 00:14:26;;;;;;;;;20.75;19.00;;;;;14.64;67.35;100178.38;5074421;28;45633;-74
2023/03/18 00:16:52;;;;;;;;;22.00;19.00;;;;;14.63;67.06;100169.63;5074144;28;45599;-75
2023/03/18 00:19:18;;;;;;;;;27.00;18.75;;;;;14.62;67.03;100183.00;5073968;28;47051;-75
2023/03/18 00:25:09;;;;;;;;;19.00;18.75;;;;;14.56;67.08;100181.75;5074833;28;45681;-73
2023/03/18 00:27:34;;;;;;;;;22.00;21.00;;;;;14.56;67.02;100184.41;5073991;28;45713;-74
2023/03/18 00:30:00;;;;;;;;;20.00;19.50;;;;;14.55;67.30;100187.16;5073819;28;46339;-76
2023/03/18 00:32:27;;;;;;;;;22.25;20.25;;;;;14.53;67.16;100189.13;5074073;28;45753;-76
2023/03/18 00:34:53;;;;;;;;;22.50;21.50;;;;;14.51;67.25;100194.56;5055866;28;45546;-74
2023/03/18 00:40:52;;;;;;;;;19.00;17.25;;;;;14.45;67.25;100197.75;5073386;28;46207;-75
2023/03/18 00:43:22;;;;;;;;;18.50;15.75;;;;;14.41;67.02;100196.38;5073615;28;45905;-75
2023/03/18 00:45:49;;;;;;;;;19.50;17.25;;;;;14.37;67.16;100194.16;5074232;28;45708;-75
2023/03/18 00:48:16;;;;;;;;;15.00;14.00;;;;;14.38;67.04;100191.38;5073904;28;47473;-74
2023/03/18 00:50:43;;;;;;;;;11.00;10.75;;;;;14.36;66.72;100193.28;5073707;28;47221;-74
2023/03/18 00:53:09;;;;;;;;;17.25;12.50;;;;;14.33;66.97;100185.69;5073925;28;45820;-74
2023/03/18 00:55:34;;;;;;;;;11.75;11.75;;;;;14.34;66.71;100184.72;5055259;28;45867;-74
2023/03/18 00:58:00;;;;;;;;;13.25;13.00;;;;;14.30;66.30;100172.81;5073561;28;45703;-75
2023/03/18 01:00:26;;;;;;;;;16.25;12.25;;;;;14.33;66.35;100179.59;5055081;28;46498;-73
2023/03/18 01:02:51;;;;;;;;;12.25;10.00;;;;;14.29;66.11;100181.69;5073247;28;45619;-75
2023/03/18 01:05:18;;;;;;;;;10.75;10.25;;;;;14.20;65.94;100179.88;5073301;28;45585;-75
2023/03/18 01:07:43;;;;;;;;;11.25;11.00;;;;;14.14;66.12;100189.19;5073106;28;46456;-74
2023/03/18 01:10:11;;;;;;;;;14.25;11.00;;;;;14.07;66.16;100185.47;5072780;28;46356;-74
2023/03/18 01:12:37;;;;;;;;;15.00;13.50;;;;;13.94;66.57;100171.78;5073061;28;45750;-75
2023/03/18 01:15:03;;;;;;;;;12.00;11.00;;;;;13.96;66.19;100190.91;5073660;28;45741;-75
2023/03/18 01:17:29;;;;;;;;;9.00;6.75;;;;;13.90;66.31;100186.19;5073140;28;47415;-75
2023/03/18 01:19:55;;;;;;;;;11.00;10.00;;;;;13.87;66.63;100187.28;5075198;28;46529;-76
2023/03/18 01:25:43;;;;;;;;;12.00;11.00;;;;;13.84;66.65;100176.22;5076812;28;45550;-74
2023/03/18 01:28:09;;;;;;;;;10.25;10.00;;;;;13.83;66.22;100187.72;5058370;28;47281;-74
2023/03/18 01:30:35;;;;;;;;;13.00;11.50;;;;;13.83;66.50;100175.38;5076200;28;46179;-75
2023/03/18 01:33:03;;;;;;;;;11.25;10.50;;;;;13.84;66.52;100176.22;5076774;28;45659;-74
2023/03/18 01:35:28;;;;;;;;;14.25;12.00;;;;;13.82;66.60;100165.00;5076652;28;45870;-74
2023/03/18 01:41:16;;;;;;;;;11.75;11.00;;;;;13.80;66.62;100156.41;5076297;28;45749;-76
2023/03/18 01:43:42;;;;;;;;;12.75;11.75;;;;;13.82;66.31;100157.91;5076152;28;45600;-74
2023/03/18 01:46:31;;;;;;;;;13.00;11.50;;;;;13.86;66.27;100155.84;5076777;28;45574;-76
2023/03/18 01:48:57;;;;;;;;;13.75;11.75;;;;;13.84;66.84;100157.78;5076381;28;46488;-74
2023/03/18 01:51:25;;;;;;;;;11.50;11.50;;;;;13.86;66.31;100151.44;5075667;28;46598;-74
2023/03/18 01:53:52;;;;;;;;;11.75;10.50;;;;;13.84;66.51;100155.16;5073056;28;45613;-75
2023/03/18 01:56:19;;;;;;;;;12.00;11.50;;;;;13.82;66.32;100160.56;5055866;28;45856;-72
2023/03/18 01:58:50;;;;;;;;;14.25;12.25;;;;;13.80;66.32;100157.25;5055931;28;45551;-75
2023/03/18 02:01:15;;;;;;;;;12.75;10.75;;;;;13.79;66.32;100152.13;5055333;28;47076;-75
2023/03/18 02:03:41;;;;;;;;;11.00;11.00;;;;;13.71;66.23;100152.00;5055907;28;45855;-73
2023/03/18 02:06:08;;;;;;;;;12.50;11.00;;;;;13.75;66.47;100154.22;5055511;28;45667;-73
2023/03/18 02:08:36;;;;;;;;;13.00;10.00;;;;;13.79;66.42;100160.00;5055216;28;47407;-74
2023/03/18 02:11:02;;;;;;;;;10.25;10.00;;;;;13.73;66.36;100153.50;5055156;28;47291;-76
2023/03/18 02:13:28;;;;;;;;;12.50;11.00;;;;;13.78;66.55;100151.28;5055576;28;45783;-73
2023/03/18 02:16:02;;;;;;;;;11.00;9.00;;;;;13.77;66.28;100154.03;5055760;28;45586;-76
2023/03/18 02:18:37;;;;;;;;;10.75;10.25;;;;;13.72;66.17;100143.09;5055547;28;47530;-75
2023/03/18 02:21:30;;;;;;;;;10.50;10.25;;;;;13.77;66.15;100161.94;5055416;28;45970;-75
2023/03/18 02:24:25;;;;;;;;;6.50;6.00;;;;;13.76;66.04;100168.22;5055596;28;45795;-75
2023/03/18 02:27:23;;;;;;;;;8.50;8.00;;;;;13.75;66.43;100161.28;5055802;28;45511;-75
2023/03/18 02:29:53;;;;;;;;;10.50;8.50;;;;;13.74;66.41;100151.72;4992937;28;46352;-73
2023/03/18 02:32:20;;;;;;;;;8.00;8.00;;;;;13.73;66.41;100155.31;4992183;28;46183;-75
2023/03/18 02:34:46;;;;;;;;;6.25;5.00;;;;;13.72;66.00;100141.31;4993585;28;45584;-74
2023/03/18 02:37:12;;;;;;;;;5.25;5.25;;;;;13.70;66.24;100139.81;4994822;28;45569;-75
2023/03/18 02:39:38;;;;;;;;;10.00;8.50;;;;;13.71;66.22;100149.38;4994313;28;45795;-74
2023/03/18 02:42:03;;;;;;;;;6.75;5.00;;;;;13.71;65.74;100157.25;4994161;28;46264;-75
2023/03/18 02:44:29;;;;;;;;;6.25;5.00;;;;;13.70;66.11;100163.50;4994361;28;45827;-74
2023/03/18 02:46:59;;;;;;;;;7.75;6.00;;;;;13.70;66.12;100168.75;4994518;28;45879;-74
2023/03/18 02:49:28;;;;;;;;;6.25;6.25;;;;;13.68;65.98;100171.53;4992950;28;46661;-74
2023/03/18 02:51:55;;;;;;;;;6.50;6.50;;;;;13.67;65.75;100163.75;4976244;28;47337;-75
2023/03/18 02:54:29;;;;;;;;;6.75;5.50;;;;;13.71;65.67;100165.16;4999747;28;45631;-74
2023/03/18 02:56:55;;;;;;;;;8.75;7.75;;;;;13.71;65.91;100170.44;5012916;28;45909;-74
2023/03/18 02:59:21;;;;;;;;;8.00;8.00;;;;;13.68;65.96;100155.72;5012576;28;45707;-76
2023/03/18 03:01:50;;;;;;;;;5.50;5.50;;;;;13.72;65.60;100161.53;4996406;28;46071;-73
2023/03/18 03:04:18;;;;;;;;;4.50;4.50;;;;;13.71;65.71;100165.97;5014884;28;45812;-75
2023/03/18 03:06:44;;;;;;;;;4.25;4.00;;;;;13.70;65.71;100160.88;5075641;28;45572;-75
2023/03/18 03:09:12;;;;;;;;;6.50;6.25;;;;;13.60;66.12;100142.44;5075054;28;46508;-74
2023/03/18 03:11:39;;;;;;;;;4.25;4.25;;;;;13.72;65.82;100167.63;5075092;28;46145;-75
2023/03/18 03:14:05;;;;;;;;;6.00;6.00;;;;;13.70;65.66;100159.06;5075253;28;45675;-75
2023/03/18 03:16:31;;;;;;;;;9.25;8.00;;;;;13.74;65.63;100170.97;5075566;28;45540;-75
2023/03/18 03:18:57;;;;;;;;;7.50;6.00;;;;;13.75;65.72;100171.81;5074948;28;46212;-75
2023/03/18 03:21:23;;;;;;;;;8.00;8.00;;;;;13.67;65.66;100158.50;5075027;28;45430;-75
2023/03/18 03:27:11;;;;;;;;;10.25;8.50;;;;;13.73;65.89;100184.25;5074905;28;45395;-75
2023/03/18 03:29:36;;;;;;;;;8.75;8.00;;;;;13.73;65.63;100182.47;5074630;28;46478;-75
2023/03/18 03:32:02;;;;;;;;;8.00;7.50;;;;;13.67;65.81;100164.59;5074428;28;46129;-76
2023/03/18 03:34:28;;;;;;;;;8.00;7.00;;;;;13.73;65.46;100169.31;5074870;28;45871;-75
2023/03/18 03:36:53;;;;;;;;;9.00;7.75;;;;;13.73;65.66;100169.31;5074876;28;45600;-75
2023/03/18 03:39:18;;;;;;;;;9.25;8.00;;;;;13.73;65.75;100176.38;5074287;28;46488;-75
2023/03/18 03:41:44;;;;;;;;;9.25;6.25;;;;;13.70;65.60;100180.13;5074070;28;46333;-74
2023/03/18 03:44:10;;;;;;;;;5.25;5.25;;;;;13.68;65.46;100186.50;5074377;28;45659;-75
2023/03/18 03:46:36;;;;;;;;;5.25;3.25;;;;;13.70;65.88;100187.19;5074692;28;45737;-75
2023/03/18 03:49:01;;;;;;;;;9.00;8.00;;;;;13.69;65.61;100182.88;5056176;28;47358;-74
2023/03/18 03:51:27;;;;;;;;;7.75;6.50;;;;;13.71;65.69;100192.28;5074274;28;45699;-74
2023/03/18 03:57:55;;;;;;;;;9.50;5.75;;;;;13.69;65.65;100183.72;5073476;28;45688;-75
2023/03/18 04:00:22;;;;;;;;;6.00;5.25;;;;;13.69;65.69;100202.16;5073897;28;46532;-75
2023/03/18 04:02:50;;;;;;;;;7.50;6.75;;;;;13.64;65.84;100175.41;5074023;28;47273;-76
2023/03/18 04:05:17;;;;;;;;;7.50;6.50;;;;;13.67;65.78;100192.72;5074072;28;45789;-76
2023/03/18 04:07:44;;;;;;;;;6.00;5.50;;;;;13.65;65.94;100187.63;5074035;28;45941;-74
2023/03/18 04:10:13;;;;;;;;;5.50;5.50;;;;;13.66;66.42;100196.31;5074183;28;46939;-75
2023/03/18 04:12:39;;;;;;;;;6.00;6.00;;;;;13.66;66.39;100193.69;5074447;28;45940;-75
2023/03/18 04:15:06;;;;;;;;;5.00;5.00;;;;;13.63;66.02;100186.91;5074304;28;45629;-76
2023/03/18 04:17:33;;;;;;;;;5.00;4.50;;;;;13.66;66.04;100181.34;5056400;28;45588;-75
2023/03/18 04:19:59;;;;;;;;;8.00;6.00;;;;;13.65;66.63;100178.88;5074092;28;45564;-74
2023/03/18 04:22:24;;;;;;;;;5.00;4.25;;;;;13.60;66.07;100181.94;5073691;28;46325;-74
2023/03/18 04:24:50;;;;;;;;;3.25;3.25;;;;;13.64;66.86;100188.56;5073844;28;45986;-74
2023/03/18 04:27:17;;;;;;;;;5.00;3.00;;;;;13.64;66.37;100198.28;5073948;28;45740;-74
2023/03/18 04:29:43;;;;;;;;;4.50;4.00;;;;;13.64;66.51;100199.09;5073574;28;47587;-74
2023/03/18 04:32:09;;;;;;;;;5.00;5.00;;;;;13.64;67.06;100198.28;5073406;28;47239;-73
2023/03/18 04:34:35;;;;;;;;;3.25;3.25;;;;;13.64;66.85;100191.22;5073101;28;45825;-74
2023/03/18 04:37:02;;;;;;;;;4.00;3.25;;;;;13.64;66.59;100195.63;5075139;28;45608;-74
2023/03/18 04:42:49;;;;;;;;;5.75;5.00;;;;;13.60;67.00;100200.34;5073924;28;45988;-74
2023/03/18 04:45:16;;;;;;;;;5.50;4.00;;;;;13.60;67.06;100196.91;5073977;28;45484;-75
2023/03/18 04:47:42;;;;;;;;;4.00;4.00;;;;;13.63;66.84;100207.97;5073794;28;45600;-74
2023/03/18 04:50:12;;;;;;;;;2.00;1.75;;;;;13.57;67.25;100195.34;5073264;28;47356;-75
2023/03/18 04:52:38;;;;;;;;;5.50;4.25;;;;;13.57;67.34;100195.34;5073203;28;46214;-74
2023/03/18 04:55:05;;;;;;;;;4.25;4.25;;;;;13.56;67.36;100200.75;5076131;28;45561;-74
2023/03/18 04:57:30;;;;;;;;;4.00;4.00;;;;;13.60;67.29;100202.16;5064035;28;45544;-75
2023/03/18 04:59:57;;;;;;;;;3.75;3.75;;;;;13.58;67.28;100204.91;5056840;28;47631;-75
2023/03/18 05:02:23;;;;;;;;;6.25;5.00;;;;;13.56;67.52;100206.84;5057280;28;45972;-74
2023/03/18 05:04:48;;;;;;;;;6.00;6.00;;;;;13.54;67.53;100207.97;5057315;28;45578;-74
2023/03/18 05:07:15;;;;;;;;;8.25;7.25;;;;;13.52;67.16;100197.56;5057225;28;45630;-74
2023/03/18 05:13:02;;;;;;;;;7.50;6.75;;;;;13.40;67.77;100175.81;5056171;28;45747;-73
2023/03/18 05:15:28;;;;;;;;;6.50;6.25;;;;;13.44;67.80;100177.19;5056693;28;45453;-74
2023/03/18 05:17:53;;;;;;;;;10.00;8.25;;;;;13.45;67.92;100180.66;5056960;28;45762;-74
2023/03/18 05:20:18;;;;;;;;;6.75;6.75;;;;;13.39;67.43;100173.31;5056517;28;45634;-73
2023/03/18 05:22:44;;;;;;;;;5.00;4.75;;;;;13.42;67.77;100179.16;5056908;28;46072;-74
2023/03/18 05:25:10;;;;;;;;;8.75;7.50;;;;;13.38;67.51;100177.78;5058293;28;45585;-75
2023/03/18 05:27:36;;;;;;;;;6.00;5.00;;;;;13.40;67.63;100181.06;5056627;28;45656;-74
2023/03/18 05:30:03;;;;;;;;;7.00;6.25;;;;;13.38;67.44;100190.94;5055909;28;46593;-73
2023/03/18 05:32:30;;;;;;;;;7.25;7.25;;;;;13.34;67.78;100173.72;5056454;28;46041;-73
2023/03/18 05:34:55;;;;;;;;;8.75;7.75;;;;;13.28;68.05;100162.94;5056389;28;45610;-75
2023/03/18 05:37:21;;;;;;;;;5.75;5.75;;;;;13.30;67.87;100177.59;5056254;28;45659;-74
2023/03/18 05:43:09;;;;;;;;;8.00;8.00;;;;;13.12;67.75;100160.03;5055942;28;45839;-74
2023/03/18 05:45:35;;;;;;;;;8.75;7.00;;;;;13.22;67.82;100172.22;5056152;28;45588;-74
2023/03/18 05:48:00;;;;;;;;;8.25;7.00;;;;;13.22;68.29;100176.66;5038259;28;45644;-75
2023/03/18 05:50:30;;;;;;;;;9.00;9.00;;;;;13.20;68.33;100173.31;5055665;28;46604;-75
2023/03/18 05:52:55;;;;;;;;;8.50;8.00;;;;;13.14;67.98;100172.06;5056022;28;46116;-74
2023/03/18 05:58:42;;;;;;;;;9.00;8.75;;;;;13.12;68.17;100176.59;5074374;27;45720;-75
2023/03/18 06:01:08;;;;;;;;;10.50;9.75;;;;;13.06;68.71;100168.41;5076298;28;45538;-75
2023/03/18 06:03:33;;;;;;;;;9.00;9.00;;;;;12.92;68.81;100154.69;5076112;28;46124;-76
2023/03/18 06:06:00;;;;;;;;;10.25;8.75;;;;;13.00;68.82;100180.31;5058403;28;45719;-75
2023/03/18 06:08:26;;;;;;;;;8.00;8.00;;;;;12.99;68.68;100179.47;5076690;28;45693;-75
2023/03/18 06:10:53;;;;;;;;;9.25;7.50;;;;;12.98;68.78;100190.94;5075879;28;46690;-75
2023/03/18 06:13:19;;;;;;;;;8.50;8.25;;;;;12.94;68.88;100186.09;5075845;28;45705;-76
2023/03/18 06:15:45;;;;;;;;;10.25;9.75;;;;;12.94;68.71;100183.47;5075952;28;45861;-75
2023/03/18 06:18:11;;;;;;;;;9.00;9.00;;;;;12.88;69.01;100174.31;5076263;28;45773;-75
2023/03/18 06:20:37;;;;;;;;;7.25;7.25;;;;;12.86;68.83;100186.75;5075698;28;47291;-74
2023/03/18 06:23:02;;;;;;;;;7.25;7.00;;;;;12.90;69.04;100184.72;5057902;28;45615;-74
2023/03/18 06:28:49;;;;;;;;;6.00;6.00;;;;;12.78;69.04;100175.25;5075813;28;45632;-75
2023/03/18 06:31:15;;;;;;;;;7.75;7.00;;;;;12.83;69.05;100194.94;5075544;28;45428;-75
2023/03/18 06:33:40;;;;;;;;;7.50;5.00;;;;;12.73;68.86;100180.91;5075522;28;45527;-74
2023/03/18 06:36:06;;;;;;;;;9.00;7.75;;;;;12.77;69.30;100195.47;5075551;28;45505;-74
2023/03/18 06:38:31;;;;;;;;;6.50;5.00;;;;;12.78;68.87;100198.91;5075830;28;45527;-74
2023/03/18 06:40:58;;;;;;;;;6.00;5.00;;;;;12.79;69.34;100205.84;5075364;28;46332;-75
2023/03/18 06:43:24;;;;;;;;;7.25;5.25;;;;;12.75;69.18;100207.06;5075609;28;45712;-74
2023/03/18 06:45:50;;;;;;;;;6.00;6.00;;;;;12.74;69.30;100208.84;5075378;28;45670;-74
2023/03/18 06:48:16;;;;;;;;;5.00;4.00;;;;;12.75;69.38;100207.88;5075716;28;45822;-75
2023/03/18 06:50:42;;;;;;;;;6.25;5.00;;;;;12.74;69.51;100200.97;5075487;28;46182;-74
2023/03/18 06:53:09;;;;;;;;;5.75;4.50;;;;;12.74;69.36;100210.66;5074988;28;46255;-75
2023/03/18 06:58:57;;;;;;;;;5.25;5.25;;;;;12.75;69.22;100209.69;5074758;27;45660;-76
2023/03/18 07:01:22;;;;;;;;;5.75;4.75;;;;;12.74;69.35;100200.16;5075505;28;46539;-75
2023/03/18 07:03:48;;;;;;;;;4.00;4.00;;;;;12.74;69.27;100211.47;5075339;28;46094;-75
2023/03/18 07:06:14;;;;;;;;;3.75;3.50;;;;;12.74;69.33;100211.47;5075331;28;45509;-74
2023/03/18 07:08:39;;;;;;;;;3.00;3.00;;;;;12.74;69.26;100205.41;5075087;28;45526;-76
2023/03/18 07:14:27;;;;;;;;;3.00;3.00;;;;;12.74;69.30;100216.72;5075149;28;46128;-76
2023/03/18 07:16:52;;;;;;;;;3.00;3.00;;;;;12.75;69.02;100210.50;5074485;28;45676;-75
2023/03/18 07:19:18;;;;;;;;;3.75;3.75;;;;;12.80;69.43;100224.09;5075176;28;45785;-77
2023/03/18 07:21:44;;;;;;;;;3.00;2.25;;;;;12.80;69.13;100218.84;5075064;28;46269;-74
2023/03/18 07:24:11;;;;;;;;;3.50;3.00;;;;;12.80;69.44;100208.31;5074787;28;46106;-73
2023/03/18 07:26:37;;;;;;;;;2.50;2.00;;;;;12.82;69.49;100219.53;5074863;28;45949;-73
2023/03/18 07:29:03;;;;;;;;;2.75;2.75;;;;;12.81;69.44;100217.03;5074820;28;45799;-75
2023/03/18 07:31:29;;;;;;;;;3.50;3.00;;;;;12.79;69.01;100221.63;5074471;28;47498;-75
2023/03/18 07:33:56;;;;;;;;;3.00;2.25;;;;;12.81;69.14;100231.03;5073935;28;45766;-74
2023/03/18 07:36:22;;;;;;;;;4.25;3.00;;;;;12.75;68.93;100218.41;5074531;28;45534;-75
2023/03/18 07:38:47;;;;;;;;;2.00;2.00;;;;;12.81;69.21;100227.56;5074875;28;45581;-75
2023/03/18 07:44:35;;;;;;;;;1.50;1.50;;;;;12.76;68.78;100220.06;5074375;28;45627;-74
2023/03/18 07:47:01;;;;;;;;;3.00;2.50;;;;;12.80;69.30;100218.00;5074821;28;45714;-74
2023/03/18 07:49:26;;;;;;;;;2.00;2.00;;;;;12.83;69.14;100225.63;5074336;28;45569;-74
2023/03/18 07:51:52;;;;;;;;;2.50;2.00;;;;;12.77;68.78;100213.03;5055856;28;48641;-75
2023/03/18 07:54:17;;;;;;;;;6.75;2.50;;;;;12.85;68.73;100234.22;5074387;28;46151;-74
2023/03/18 07:56:43;;;;;;;;;2.25;2.25;;;;;12.81;68.83;100214.41;5074846;28;45666;-74
2023/03/18 07:59:09;;;;;;;;;3.00;2.50;;;;;12.89;69.03;100219.84;5062171;28;45552;-74
2023/03/18 08:01:34;;;;;;;;;2.00;2.00;;;;;12.89;68.99;100225.94;5054105;28;45516;-74
2023/03/18 08:04:00;;;;;;;;;3.25;3.00;;;;;12.91;68.82;100220.53;5054496;28;46354;-74
2023/03/18 08:06:25;;;;;;;;;2.00;2.00;;;;;12.93;69.03;100231.75;5054583;28;45576;-75
2023/03/18 08:08:50;;;;;;;;;2.00;2.00;;;;;12.95;68.86;100232.47;5054355;28;45578;-76
2023/03/18 08:14:38;;;;;;;;;4.00;3.00;;;;;12.96;68.93;100229.69;5054669;28;46079;-74
2023/03/18 08:17:04;;;;;;;;;2.00;2.00;;;;;12.98;69.27;100235.66;5054540;28;45496;-75
2023/03/18 08:19:29;;;;;;;;;2.75;2.00;;;;;13.02;69.27;100238.84;5053953;28;45504;-74
2023/03/18 08:21:56;;;;;;;;;4.00;3.00;;;;;13.03;69.20;100243.13;5053675;28;45591;-76
2023/03/18 08:24:23;;;;;;;;;0.00;0.00;;;;;12.98;68.92;100237.44;5054008;28;47059;-76
2023/03/18 08:30:39;;;;;;;;;3.00;2.75;;;;;13.10;69.13;100251.34;5053537;28;45560;-74
2023/03/18 08:33:04;;;;;;;;;3.75;3.00;;;;;13.12;69.01;100247.63;5053779;28;47551;-75
2023/03/18 08:35:30;;;;;;;;;3.75;3.00;;;;;13.12;68.91;100244.19;5035631;28;46955;-75
2023/03/18 08:37:55;;;;;;;;;3.00;2.50;;;;;13.20;68.96;100241.69;5035790;28;45604;-74
2023/03/18 08:40:21;;;;;;;;;3.50;3.00;;;;;13.23;69.29;100239.63;5053371;28;45636;-75
2023/03/18 08:42:47;;;;;;;;;3.75;3.00;;;;;13.26;69.33;100241.16;5053488;28;46453;-74
2023/03/18 08:45:13;;;;;;;;;4.00;3.00;;;;;13.29;68.66;100240.88;5053812;28;46428;-74
2023/03/18 08:47:39;;;;;;;;;3.00;2.50;;;;;13.31;68.78;100242.44;5035382;28;46167;-74
2023/03/18 08:50:04;;;;;;;;;3.25;3.25;;;;;13.33;68.73;100229.94;5035903;28;45613;-76
2023/03/18 08:52:31;;;;;;;;;4.00;3.00;;;;;13.34;68.88;100236.88;5053688;28;47386;-77
2023/03/18 08:54:57;;;;;;;;;3.75;3.50;;;;;13.35;68.74;100227.19;5054437;28;47638;-75
2023/03/18 08:57:23;;;;;;;;;4.00;3.00;;;;;13.41;68.75;100237.16;5054475;28;45701;-75
2023/03/18 08:59:49;;;;;;;;;2.25;2.25;;;;;13.41;68.46;100227.47;5067290;28;45897;-75
2023/03/18 09:02:19;;;;;;;;;4.50;3.00;;;;;13.42;68.61;100233.56;5052383;28;47035;-75
2023/03/18 09:04:46;;;;;;;;;5.25;5.00;;;;;13.51;68.44;100224.03;5053467;28;45654;-75
2023/03/18 09:07:13;;;;;;;;;5.00;4.00;;;;;13.54;68.54;100229.88;5053466;28;45629;-75
2023/03/18 09:09:38;;;;;;;;;7.25;5.50;;;;;13.52;68.71;100218.63;5051910;28;45601;-75
2023/03/18 09:15:26;;;;;;;;;6.25;5.00;;;;;13.68;68.15;100234.72;5052099;28;46298;-76
2023/03/18 09:17:52;;;;;;;;;6.50;6.00;;;;;13.64;68.07;100224.59;5047968;28;45743;-75
2023/03/18 09:20:17;;;;;;;;;10.25;9.00;;;;;13.71;67.96;100228.34;5051704;28;45804;-74
2023/03/18 09:22:45;;;;;;;;;5.00;4.00;;;;;13.74;68.10;100231.53;5052183;28;45962;-75
2023/03/18 09:25:10;;;;;;;;;5.00;4.00;;;;;13.81;67.54;100242.34;5051995;28;47095;-76
2023/03/18 09:27:36;;;;;;;;;9.00;6.00;;;;;13.81;67.83;100234.44;5051669;28;45564;-74
2023/03/18 09:30:02;;;;;;;;;6.25;5.00;;;;;13.88;67.15;100248.69;5067123;28;45609;-75
2023/03/18 09:32:28;;;;;;;;;5.00;4.25;;;;;13.90;66.98;100241.50;5052026;28;46249;-76
2023/03/18 09:34:53;;;;;;;;;4.00;3.25;;;;;13.91;67.15;100235.28;5051965;28;46274;-74
2023/03/18 09:37:19;;;;;;;;;5.75;5.75;;;;;13.91;67.25;100224.72;5051962;28;45879;-75
2023/03/18 09:39:46;;;;;;;;;3.25;3.25;;;;;14.00;66.92;100229.16;5052100;28;45654;-76
2023/03/18 09:45:48;;;;;;;;;2.50;2.50;;;;;14.12;67.04;100232.47;5054925;28;45583;-76
2023/03/18 09:48:20;;;;;;;;;3.00;3.00;;;;;14.17;66.71;100235.50;5055683;28;45732;-74
2023/03/18 09:50:46;;;;;;;;;4.25;3.00;;;;;14.19;66.45;100234.41;5055629;28;45810;-74
2023/03/18 09:53:22;;;;;;;;;0.00;0.00;;;;;14.16;66.70;100221.50;5056148;28;46304;-74
2023/03/18 09:55:59;;;;;;;;;3.25;2.25;;;;;14.29;65.99;100235.22;5054941;28;46181;-75
2023/03/18 09:58:50;;;;;;;;;3.00;2.00;;;;;14.34;65.96;100232.16;5055138;28;45996;-76
2023/03/18 10:01:19;;;;;;;;;3.00;2.25;;;;;14.37;65.87;100233.69;5055310;28;45947;-74
2023/03/18 10:03:52;;;;;;;;;3.75;3.00;;;;;14.45;65.82;100231.19;5055146;28;45499;-76
2023/03/18 10:06:20;;;;;;;;;2.00;2.00;;;;;14.51;65.64;100241.16;5054732;28;46069;-75
2023/03/18 10:08:56;;;;;;;;;1.50;1.50;;;;;14.44;64.92;100217.19;5054498;28;45943;-75
2023/03/18 10:11:29;;;;;;;;;2.00;2.00;;;;;14.63;64.97;100238.19;5054609;28;45976;-75
2023/03/18 10:14:20;;;;;;;;;1.25;1.25;;;;;14.69;64.74;100244.69;5054649;28;46488;-75
2023/03/18 10:16:54;;;;;;;;;3.00;3.00;;;;;14.78;64.25;100232.47;5055170;28;46362;-78
2023/03/18 10:19:20;;;;;;;;;2.25;2.25;;;;;14.83;64.04;100232.88;5054789;28;45680;-77
2023/03/18 10:22:01;;;;;;;;;5.50;1.25;;;;;14.88;63.69;100239.38;5055136;28;46026;-76
2023/03/18 10:24:49;;;;;;;;;2.25;2.00;;;;;15.04;63.64;100244.00;5056000;28;45925;-76
2023/03/18 10:27:23;;;;;;;;;1.25;1.00;;;;;15.15;63.18;100248.25;5055806;28;45922;-75
2023/03/18 10:30:08;;;;;;;;;1.75;1.75;;;;;15.23;62.92;100246.53;5054913;28;45741;-76
2023/03/18 10:32:50;;;;;;;;;2.25;1.00;;;;;15.26;63.11;100243.63;5054666;28;45879;-76
2023/03/18 10:35:29;;;;;;;;;2.25;1.75;;;;;15.36;62.93;100246.19;5054385;28;47606;-74
2023/03/18 10:38:17;;;;;;;;;2.00;2.00;;;;;15.40;61.89;100239.63;5054799;28;46219;-76
2023/03/18 10:43:50;;;;;;;;;1.00;1.00;;;;;15.42;61.40;100245.59;4993568;28;45798;-76
2023/03/18 10:46:18;;;;;;;;;2.00;1.00;;;;;15.49;60.75;100251.97;4976881;28;48381;-75
2023/03/18 10:49:17;;;;;;;;;1.00;1.00;;;;;15.56;60.96;100250.38;4993665;28;46580;-74
2023/03/18 10:51:53;;;;;;;;;2.00;2.00;;;;;15.58;60.99;100239.69;4992793;28;46219;-77
2023/03/18 10:54:31;;;;;;;;;2.00;2.00;;;;;15.65;60.50;100244.22;4993258;28;45628;-75
2023/03/18 11:00:34;;;;;;;;;1.00;1.00;;;;;15.87;60.33;100243.75;4997617;28;46058;-76
2023/03/18 11:03:01;;;;;;;;;1.00;1.00;;;;;15.94;59.56;100233.41;4991817;28;45813;-74
2023/03/18 11:05:36;;;;;;;;;1.00;1.00;;;;;16.01;59.28;100228.34;4976031;28;46036;-74
2023/03/18 11:08:05;;;;;;;;;1.00;1.00;;;;;16.12;59.01;100239.50;4992654;28;46550;-76
2023/03/18 11:10:45;;;;;;;;;1.75;1.00;;;;;16.18;58.95;100248.63;4992001;28;46389;-74
2023/03/18 11:16:43;;;;;;;;;1.75;0.50;;;;;16.32;58.25;100250.72;4993595;28;45641;-74
2023/03/18 11:19:28;;;;;;;;;2.00;2.00;;;;;16.39;58.10;100251.75;5055068;28;46983;-73
2023/03/18 11:22:04;;;;;;;;;1.00;1.00;;;;;16.43;58.11;100257.56;5054152;28;45859;-75
2023/03/18 11:24:41;;;;;;;;;1.75;1.75;;;;;16.48;57.61;100252.63;5054223;28;45643;-76
2023/03/18 11:27:15;;;;;;;;;1.25;1.25;;;;;16.49;57.98;100233.97;5053498;28;45672;-75
2023/03/18 11:29:45;;;;;;;;;3.00;3.00;;;;;16.48;57.49;100237.59;5052832;28;47505;-73
2023/03/18 11:32:23;;;;;;;;;3.00;2.00;;;;;16.54;57.28;100239.63;5053292;28;47161;-75
2023/03/18 11:34:57;;;;;;;;;1.00;1.00;;;;;16.56;57.13;100234.19;5053828;28;45621;-75
2023/03/18 11:37:40;;;;;;;;;1.00;1.00;;;;;16.58;56.85;100216.31;5054246;28;45570;-74
2023/03/18 11:40:26;;;;;;;;;3.00;1.50;;;;;16.63;56.84;100238.72;5052983;28;46539;-74
2023/03/18 11:43:01;;;;;;;;;2.00;1.00;;;;;16.62;56.79;100237.06;5052915;28;47033;-76
2023/03/18 11:45:45;;;;;;;;;2.25;1.50;;;;;16.67;55.59;100239.25;5053810;28;45559;-74
2023/03/18 11:48:17;;;;;;;;;2.00;1.25;;;;;16.69;55.90;100231.97;5054094;28;45573;-75
2023/03/18 11:50:55;;;;;;;;;2.25;1.25;;;;;16.71;56.48;100249.34;5052970;28;46561;-74
2023/03/18 11:53:59;;;;;;;;;1.00;1.00;;;;;16.78;56.13;100244.25;5052162;28;46490;-75
2023/03/18 12:00:01;;;;;;;;;1.00;0.00;;;;;16.88;55.04;100247.63;5052983;27;45707;-74
2023/03/18 12:02:57;;;;;;;;;1.50;1.00;;;;;16.90;54.99;100252.72;5053149;28;45711;-73
2023/03/18 12:05:53;;;;;;;;;1.00;1.00;;;;;16.95;55.09;100240.69;5052800;28;47100;-74
2023/03/18 12:08:38;;;;;;;;;0.50;0.50;;;;;16.99;54.54;100227.97;5053253;28;45742;-73
2023/03/18 12:18:17;;;;;;;;;1.00;0.25;;;;;17.08;54.04;100238.44;4990801;28;45932;-75
2023/03/18 12:20:55;;;;;;;;;1.00;1.00;;;;;17.17;54.31;100223.41;4988429;28;45980;-75
2023/03/18 12:23:46;;;;;;;;;1.00;0.50;;;;;17.28;54.10;100219.63;4991730;28;46067;-75
2023/03/18 12:26:23;;;;;;;;;0.75;0.50;;;;;17.31;53.87;100222.78;4991504;28;45718;-75
2023/03/18 12:29:16;;;;;;;;;1.00;1.00;;;;;17.43;53.85;100220.69;4990311;28;47135;-74
2023/03/18 12:32:04;;;;;;;;;1.75;0.25;;;;;17.54;53.39;100225.66;4990830;28;45902;-75
2023/03/18 12:34:43;;;;;;;;;0.75;0.75;;;;;17.62;52.78;100228.34;4991235;28;45611;-76
2023/03/18 12:37:14;;;;;;;;;1.00;1.00;;;;;17.66;52.91;100224.38;4974720;28;46943;-77
2023/03/18 12:40:00;;;;;;;;;1.00;1.00;;;;;17.75;53.16;100222.56;4990920;28;45994;-76
2023/03/18 12:43:07;;;;;;;;;1.00;0.00;;;;;17.80;53.01;100221.09;4991072;28;45860;-75
2023/03/18 12:45:41;;;;;;;;;1.00;1.00;;;;;17.76;52.59;100216.28;5031305;28;45577;-75
2023/03/18 12:48:31;;;;;;;;;2.00;1.00;;;;;17.76;52.41;100211.78;5051990;28;47271;-77
2023/03/18 12:51:08;;;;;;;;;1.75;1.00;;;;;17.76;52.57;100218.94;5051902;28;46310;-76
2023/03/18 12:53:39;;;;;;;;;1.00;1.00;;;;;17.74;53.54;100236.81;5052469;28;45642;-74
2023/03/18 12:56:16;;;;;;;;;1.00;1.00;;;;;17.65;53.69;100229.84;5052320;28;45653;-75